sensor_id;sensor_type;location;lat;lon;timestamp;temperature;humidity
13416;DHT22;6779;50.150;8.680;2022-11-20T00:01:09;3.10;99.90
13416;DHT22;6779;50.150;8.680;2022-11-20T00:03:35;3.20;99.90
13416;DHT22;6779;50.150;8.680;2022-11-20T00:06:06;3.20;99.90
13416;DHT22;6779;50.150;8.680;2022-11-20T00:08:32;3.10;99.90
13416;DHT22;6779;50.150;8.680;2022-11-20T00:11:01;3.10;99.90
13416;DHT22;6779;50.150;8.680;2022-11-20T00:13:27;3.20;99.90
13416;DHT22;6779;50.150;8.680;2022-11-20T00:16:06;3.10;99.90
13416;DHT22;6779;50.150;8.680;2022-11-20T00:18:33;3.10;99.90
13416;DHT22;6779;50.150;8.680;2022-11-20T00:21:10;3.10;99.90
13416;DHT22;6779;50.150;8.680;2022-11-20T00:23:36;3.10;99.90
13416;DHT22;6779;50.150;8.680;2022-11-20T00:26:03;3.00;99.90
13416;DHT22;6779;50.150;8.680;2022-11-20T00:28:29;3.00;99.90
13416;DHT22;6779;50.150;8.680;2022-11-20T00:31:12;3.00;99.90
13416;DHT22;6779;50.150;8.680;2022-11-20T00:33:38;3.00;99.90
13416;DHT22;6779;50.150;8.680;2022-11-20T00:36:06;3.10;99.90
13416;DHT22;6779;50.150;8.680;2022-11-20T00:38:32;3.00;99.90
13416;DHT22;6779;50.150;8.680;2022-11-20T00:40:59;3.00;99.90
13416;DHT22;6779;50.150;8.680;2022-11-20T00:43:26;3.00;99.90
13416;DHT22;6779;50.150;8.680;2022-11-20T00:45:57;3.00;99.90
13416;DHT22;6779;50.150;8.680;2022-11-20T00:48:23;3.00;99.90
13416;DHT22;6779;50.150;8.680;2022-11-20T00:50:49;3.00;99.90
13416;DHT22;6779;50.150;8.680;2022-11-20T00:53:14;2.90;99.90
13416;DHT22;6779;50.150;8.680;2022-11-20T00:55:40;3.10;99.90
13416;DHT22;6779;50.150;8.680;2022-11-20T00:58:06;3.00;99.90
13416;DHT22;6779;50.150;8.680;2022-11-20T01:00:31;3.10;99.90
13416;DHT22;6779;50.150;8.680;2022-11-20T01:02:57;3.10;99.90
13416;DHT22;6779;50.150;8.680;2022-11-20T01:05:22;3.10;99.90
13416;DHT22;6779;50.150;8.680;2022-11-20T01:07:48;3.00;99.90
13416;DHT22;6779;50.150;8.680;2022-11-20T01:10:13;2.90;99.90
13416;DHT22;6779;50.150;8.680;2022-11-20T01:12:39;3.00;99.90
13416;DHT22;6779;50.150;8.680;2022-11-20T01:15:05;3.00;99.90
13416;DHT22;6779;50.150;8.680;2022-11-20T01:17:31;3.10;99.90
13416;DHT22;6779;50.150;8.680;2022-11-20T01:19:57;3.10;99.90
13416;DHT22;6779;50.150;8.680;2022-11-20T01:22:23;3.00;99.90
13416;DHT22;6779;50.150;8.680;2022-11-20T01:24:48;3.00;99.90
13416;DHT22;6779;50.150;8.680;2022-11-20T01:27:14;2.80;99.90
13416;DHT22;6779;50.150;8.680;2022-11-20T01:29:39;2.80;99.90
13416;DHT22;6779;50.150;8.680;2022-11-20T01:32:05;2.70;99.90
13416;DHT22;6779;50.150;8.680;2022-11-20T01:34:30;2.80;99.90
13416;DHT22;6779;50.150;8.680;2022-11-20T01:36:56;2.70;99.90
13416;DHT22;6779;50.150;8.680;2022-11-20T01:39:24;2.70;99.90
13416;DHT22;6779;50.150;8.680;2022-11-20T01:41:52;2.70;99.90
13416;DHT22;6779;50.150;8.680;2022-11-20T01:44:59;2.70;99.90
13416;DHT22;6779;50.150;8.680;2022-11-20T01:47:27;2.60;99.90
13416;DHT22;6779;50.150;8.680;2022-11-20T01:50:03;2.60;99.90
13416;DHT22;6779;50.150;8.680;2022-11-20T01:52:51;2.70;99.90
13416;DHT22;6779;50.150;8.680;2022-11-20T01:55:23;2.70;99.90
13416;DHT22;6779;50.150;8.680;2022-11-20T01:57:50;2.70;99.90
13416;DHT22;6779;50.150;8.680;2022-11-20T02:00:18;2.70;99.90
13416;DHT22;6779;50.150;8.680;2022-11-20T02:02:51;2.90;99.90
13416;DHT22;6779;50.150;8.680;2022-11-20T02:05:35;2.70;99.90
13416;DHT22;6779;50.150;8.680;2022-11-20T02:08:04;2.80;99.90
13416;DHT22;6779;50.150;8.680;2022-11-20T02:10:30;2.70;99.90
13416;DHT22;6779;50.150;8.680;2022-11-20T02:12:56;2.70;99.90
13416;DHT22;6779;50.150;8.680;2022-11-20T02:15:41;2.80;99.90
13416;DHT22;6779;50.150;8.680;2022-11-20T02:18:07;2.80;99.90
13416;DHT22;6779;50.150;8.680;2022-11-20T02:20:34;2.60;99.90
13416;DHT22;6779;50.150;8.680;2022-11-20T02:23:07;2.70;99.90
13416;DHT22;6779;50.150;8.680;2022-11-20T02:25:35;2.70;99.90
13416;DHT22;6779;50.150;8.680;2022-11-20T02:28:02;2.70;99.90
13416;DHT22;6779;50.150;8.680;2022-11-20T02:30:28;2.70;99.90
13416;DHT22;6779;50.150;8.680;2022-11-20T02:32:53;2.80;99.90
13416;DHT22;6779;50.150;8.680;2022-11-20T02:37:45;2.70;99.90
13416;DHT22;6779;50.150;8.680;2022-11-20T02:40:13;2.70;99.90
13416;DHT22;6779;50.150;8.680;2022-11-20T02:42:38;2.60;99.90
13416;DHT22;6779;50.150;8.680;2022-11-20T02:45:05;2.60;99.90
13416;DHT22;6779;50.150;8.680;2022-11-20T02:47:31;2.60;99.90
13416;DHT22;6779;50.150;8.680;2022-11-20T02:49:57;2.70;99.90
13416;DHT22;6779;50.150;8.680;2022-11-20T02:52:23;2.60;99.90
13416;DHT22;6779;50.150;8.680;2022-11-20T02:54:49;2.60;99.90
13416;DHT22;6779;50.150;8.680;2022-11-20T02:57:14;2.50;99.90
13416;DHT22;6779;50.150;8.680;2022-11-20T02:59:40;2.60;99.90
13416;DHT22;6779;50.150;8.680;2022-11-20T03:02:05;2.50;99.90
13416;DHT22;6779;50.150;8.680;2022-11-20T03:04:31;2.60;99.90
13416;DHT22;6779;50.150;8.680;2022-11-20T03:06:56;2.60;99.90
13416;DHT22;6779;50.150;8.680;2022-11-20T03:09:22;2.60;99.90
13416;DHT22;6779;50.150;8.680;2022-11-20T03:11:47;2.60;99.90
13416;DHT22;6779;50.150;8.680;2022-11-20T03:14:13;2.50;99.90
13416;DHT22;6779;50.150;8.680;2022-11-20T03:16:39;2.60;99.90
13416;DHT22;6779;50.150;8.680;2022-11-20T03:19:05;2.50;99.90
13416;DHT22;6779;50.150;8.680;2022-11-20T03:21:32;2.60;99.90
13416;DHT22;6779;50.150;8.680;2022-11-20T03:23:58;2.50;99.90
13416;DHT22;6779;50.150;8.680;2022-11-20T03:26:25;2.40;99.90
13416;DHT22;6779;50.150;8.680;2022-11-20T03:28:57;2.50;99.90
13416;DHT22;6779;50.150;8.680;2022-11-20T03:31:28;2.50;99.90
13416;DHT22;6779;50.150;8.680;2022-11-20T03:33:55;2.40;99.90
13416;DHT22;6779;50.150;8.680;2022-11-20T03:36:21;2.40;99.90
13416;DHT22;6779;50.150;8.680;2022-11-20T03:38:47;2.40;99.90
13416;DHT22;6779;50.150;8.680;2022-11-20T03:41:15;2.40;99.90
13416;DHT22;6779;50.150;8.680;2022-11-20T03:43:41;2.50;99.90
13416;DHT22;6779;50.150;8.680;2022-11-20T03:46:07;2.50;99.90
13416;DHT22;6779;50.150;8.680;2022-11-20T03:48:33;2.50;99.90
13416;DHT22;6779;50.150;8.680;2022-11-20T03:51:13;2.50;99.90
13416;DHT22;6779;50.150;8.680;2022-11-20T03:53:39;2.50;99.90
13416;DHT22;6779;50.150;8.680;2022-11-20T03:56:06;2.50;99.90
13416;DHT22;6779;50.150;8.680;2022-11-20T03:58:34;2.50;99.90
13416;DHT22;6779;50.150;8.680;2022-11-20T04:01:09;2.60;99.90
13416;DHT22;6779;50.150;8.680;2022-11-20T04:03:36;2.60;99.90
13416;DHT22;6779;50.150;8.680;2022-11-20T04:06:07;2.50;99.90
13416;DHT22;6779;50.150;8.680;2022-11-20T04:08:33;2.50;99.90
13416;DHT22;6779;50.150;8.680;2022-11-20T04:11:20;2.50;99.90
13416;DHT22;6779;50.150;8.680;2022-11-20T04:13:48;2.60;99.90
13416;DHT22;6779;50.150;8.680;2022-11-20T04:16:14;2.50;99.90
13416;DHT22;6779;50.150;8.680;2022-11-20T04:18:39;2.50;99.90
13416;DHT22;6779;50.150;8.680;2022-11-20T04:21:06;2.50;99.90
13416;DHT22;6779;50.150;8.680;2022-11-20T04:23:31;2.50;99.90
13416;DHT22;6779;50.150;8.680;2022-11-20T04:26:09;2.40;99.90
13416;DHT22;6779;50.150;8.680;2022-11-20T04:28:35;2.40;99.90
13416;DHT22;6779;50.150;8.680;2022-11-20T04:31:11;2.50;99.90
13416;DHT22;6779;50.150;8.680;2022-11-20T04:33:38;2.60;99.90
13416;DHT22;6779;50.150;8.680;2022-11-20T04:38:45;2.50;99.90
13416;DHT22;6779;50.150;8.680;2022-11-20T04:41:18;2.50;99.90
13416;DHT22;6779;50.150;8.680;2022-11-20T04:43:49;2.50;99.90
13416;DHT22;6779;50.150;8.680;2022-11-20T04:46:15;2.60;99.90
13416;DHT22;6779;50.150;8.680;2022-11-20T04:48:41;2.50;99.90
13416;DHT22;6779;50.150;8.680;2022-11-20T04:51:07;2.50;99.90
13416;DHT22;6779;50.150;8.680;2022-11-20T04:53:32;2.50;99.90
13416;DHT22;6779;50.150;8.680;2022-11-20T04:56:02;2.50;99.90
13416;DHT22;6779;50.150;8.680;2022-11-20T04:58:28;2.50;99.90
13416;DHT22;6779;50.150;8.680;2022-11-20T05:00:53;2.50;99.90
13416;DHT22;6779;50.150;8.680;2022-11-20T05:03:25;2.60;99.90
13416;DHT22;6779;50.150;8.680;2022-11-20T05:05:50;2.50;99.90
13416;DHT22;6779;50.150;8.680;2022-11-20T05:08:16;2.60;99.90
13416;DHT22;6779;50.150;8.680;2022-11-20T05:10:41;2.60;99.90
13416;DHT22;6779;50.150;8.680;2022-11-20T05:13:07;2.50;99.90
13416;DHT22;6779;50.150;8.680;2022-11-20T05:15:32;2.50;99.90
13416;DHT22;6779;50.150;8.680;2022-11-20T05:17:58;2.50;99.90
13416;DHT22;6779;50.150;8.680;2022-11-20T05:20:23;2.60;99.90
13416;DHT22;6779;50.150;8.680;2022-11-20T05:22:49;2.70;99.90
13416;DHT22;6779;50.150;8.680;2022-11-20T05:25:14;2.60;99.90
13416;DHT22;6779;50.150;8.680;2022-11-20T05:27:40;2.60;99.90
13416;DHT22;6779;50.150;8.680;2022-11-20T05:30:06;2.60;99.90
13416;DHT22;6779;50.150;8.680;2022-11-20T05:32:32;2.60;99.90
13416;DHT22;6779;50.150;8.680;2022-11-20T05:34:57;2.50;99.90
13416;DHT22;6779;50.150;8.680;2022-11-20T05:37:23;2.30;99.90
13416;DHT22;6779;50.150;8.680;2022-11-20T05:39:49;2.40;99.90
13416;DHT22;6779;50.150;8.680;2022-11-20T05:42:14;2.30;99.90
13416;DHT22;6779;50.150;8.680;2022-11-20T05:45:03;2.20;99.90
13416;DHT22;6779;50.150;8.680;2022-11-20T05:47:32;2.30;99.90
13416;DHT22;6779;50.150;8.680;2022-11-20T05:49:58;2.50;99.90
13416;DHT22;6779;50.150;8.680;2022-11-20T05:52:23;2.40;99.90
13416;DHT22;6779;50.150;8.680;2022-11-20T05:54:49;2.40;99.90
13416;DHT22;6779;50.150;8.680;2022-11-20T05:57:15;2.50;99.90
13416;DHT22;6779;50.150;8.680;2022-11-20T05:59:40;2.50;99.90
13416;DHT22;6779;50.150;8.680;2022-11-20T06:02:06;2.40;99.90
13416;DHT22;6779;50.150;8.680;2022-11-20T06:04:31;2.40;99.90
13416;DHT22;6779;50.150;8.680;2022-11-20T06:06:57;2.40;99.90
13416;DHT22;6779;50.150;8.680;2022-11-20T06:09:22;2.50;99.90
13416;DHT22;6779;50.150;8.680;2022-11-20T06:11:48;2.50;99.90
13416;DHT22;6779;50.150;8.680;2022-11-20T06:14:14;2.50;99.90
13416;DHT22;6779;50.150;8.680;2022-11-20T06:16:39;2.50;99.90
13416;DHT22;6779;50.150;8.680;2022-11-20T06:19:05;2.50;99.90
13416;DHT22;6779;50.150;8.680;2022-11-20T06:21:30;2.40;99.90
13416;DHT22;6779;50.150;8.680;2022-11-20T06:23:55;2.50;99.90
13416;DHT22;6779;50.150;8.680;2022-11-20T06:26:26;2.40;99.90
13416;DHT22;6779;50.150;8.680;2022-11-20T06:28:52;2.50;99.90
13416;DHT22;6779;50.150;8.680;2022-11-20T06:31:20;2.50;99.90
13416;DHT22;6779;50.150;8.680;2022-11-20T06:33:47;2.50;99.90
13416;DHT22;6779;50.150;8.680;2022-11-20T06:36:14;2.50;99.90
13416;DHT22;6779;50.150;8.680;2022-11-20T06:38:40;2.50;99.90
13416;DHT22;6779;50.150;8.680;2022-11-20T06:41:10;2.60;99.90
13416;DHT22;6779;50.150;8.680;2022-11-20T06:43:36;2.60;99.90
13416;DHT22;6779;50.150;8.680;2022-11-20T06:46:02;2.70;99.90
13416;DHT22;6779;50.150;8.680;2022-11-20T06:48:28;2.60;99.90
13416;DHT22;6779;50.150;8.680;2022-11-20T06:50:54;2.50;99.90
13416;DHT22;6779;50.150;8.680;2022-11-20T06:53:19;2.60;99.90
13416;DHT22;6779;50.150;8.680;2022-11-20T06:55:46;2.60;99.90
13416;DHT22;6779;50.150;8.680;2022-11-20T06:58:12;2.60;99.90
13416;DHT22;6779;50.150;8.680;2022-11-20T07:00:38;2.70;99.90
13416;DHT22;6779;50.150;8.680;2022-11-20T07:03:05;2.70;99.90
13416;DHT22;6779;50.150;8.680;2022-11-20T07:05:31;2.70;99.90
13416;DHT22;6779;50.150;8.680;2022-11-20T07:07:57;2.70;99.90
13416;DHT22;6779;50.150;8.680;2022-11-20T07:10:23;2.70;99.90
13416;DHT22;6779;50.150;8.680;2022-11-20T07:12:50;2.60;99.90
13416;DHT22;6779;50.150;8.680;2022-11-20T07:15:16;2.70;99.90
13416;DHT22;6779;50.150;8.680;2022-11-20T07:17:41;2.70;99.90
13416;DHT22;6779;50.150;8.680;2022-11-20T07:20:07;2.70;99.90
13416;DHT22;6779;50.150;8.680;2022-11-20T07:22:33;2.80;99.90
13416;DHT22;6779;50.150;8.680;2022-11-20T07:24:58;2.80;99.90
13416;DHT22;6779;50.150;8.680;2022-11-20T07:27:24;2.90;99.90
13416;DHT22;6779;50.150;8.680;2022-11-20T07:29:49;2.70;99.90
13416;DHT22;6779;50.150;8.680;2022-11-20T07:32:15;2.70;99.90
13416;DHT22;6779;50.150;8.680;2022-11-20T07:34:40;2.60;99.90
13416;DHT22;6779;50.150;8.680;2022-11-20T07:37:06;2.70;99.90
13416;DHT22;6779;50.150;8.680;2022-11-20T07:39:31;2.60;99.90
13416;DHT22;6779;50.150;8.680;2022-11-20T07:41:57;2.60;99.90
13416;DHT22;6779;50.150;8.680;2022-11-20T07:44:22;2.60;99.90
13416;DHT22;6779;50.150;8.680;2022-11-20T07:46:48;2.50;99.90
13416;DHT22;6779;50.150;8.680;2022-11-20T07:49:13;2.50;99.90
13416;DHT22;6779;50.150;8.680;2022-11-20T07:51:39;2.50;99.90
13416;DHT22;6779;50.150;8.680;2022-11-20T07:54:04;2.60;99.90
13416;DHT22;6779;50.150;8.680;2022-11-20T07:56:30;2.60;99.90
13416;DHT22;6779;50.150;8.680;2022-11-20T07:58:55;2.70;99.90
13416;DHT22;6779;50.150;8.680;2022-11-20T08:01:21;2.60;99.90
13416;DHT22;6779;50.150;8.680;2022-11-20T08:03:47;2.70;99.90
13416;DHT22;6779;50.150;8.680;2022-11-20T08:06:12;2.70;99.90
13416;DHT22;6779;50.150;8.680;2022-11-20T08:08:38;2.60;99.90
13416;DHT22;6779;50.150;8.680;2022-11-20T08:11:04;2.60;99.90
13416;DHT22;6779;50.150;8.680;2022-11-20T08:13:49;2.60;99.90
13416;DHT22;6779;50.150;8.680;2022-11-20T08:16:33;2.60;99.90
13416;DHT22;6779;50.150;8.680;2022-11-20T08:18:58;2.80;99.90
13416;DHT22;6779;50.150;8.680;2022-11-20T08:21:24;2.80;99.90
13416;DHT22;6779;50.150;8.680;2022-11-20T08:23:49;2.80;99.90
13416;DHT22;6779;50.150;8.680;2022-11-20T08:26:15;2.90;99.90
13416;DHT22;6779;50.150;8.680;2022-11-20T08:28:40;2.90;99.90
13416;DHT22;6779;50.150;8.680;2022-11-20T08:31:06;3.00;99.90
13416;DHT22;6779;50.150;8.680;2022-11-20T08:33:31;2.90;99.90
13416;DHT22;6779;50.150;8.680;2022-11-20T08:36:02;3.00;99.90
13416;DHT22;6779;50.150;8.680;2022-11-20T08:38:28;3.10;99.90
13416;DHT22;6779;50.150;8.680;2022-11-20T08:41:02;3.10;99.90
13416;DHT22;6779;50.150;8.680;2022-11-20T08:43:46;3.10;99.90
13416;DHT22;6779;50.150;8.680;2022-11-20T08:46:12;3.10;99.90
13416;DHT22;6779;50.150;8.680;2022-11-20T08:48:37;3.00;99.90
13416;DHT22;6779;50.150;8.680;2022-11-20T08:51:03;3.00;99.90
13416;DHT22;6779;50.150;8.680;2022-11-20T08:53:28;3.10;99.90
13416;DHT22;6779;50.150;8.680;2022-11-20T08:55:54;3.10;99.90
13416;DHT22;6779;50.150;8.680;2022-11-20T08:58:19;3.10;99.90
13416;DHT22;6779;50.150;8.680;2022-11-20T09:00:45;3.10;99.90
13416;DHT22;6779;50.150;8.680;2022-11-20T09:03:11;3.20;99.90
13416;DHT22;6779;50.150;8.680;2022-11-20T09:05:38;3.10;99.90
13416;DHT22;6779;50.150;8.680;2022-11-20T09:08:04;3.20;99.90
13416;DHT22;6779;50.150;8.680;2022-11-20T09:10:29;3.20;99.90
13416;DHT22;6779;50.150;8.680;2022-11-20T09:12:55;3.40;99.90
13416;DHT22;6779;50.150;8.680;2022-11-20T09:15:21;3.40;99.90
13416;DHT22;6779;50.150;8.680;2022-11-20T09:18:01;3.50;99.90
13416;DHT22;6779;50.150;8.680;2022-11-20T09:20:27;3.70;99.90
13416;DHT22;6779;50.150;8.680;2022-11-20T09:22:54;3.80;99.90
13416;DHT22;6779;50.150;8.680;2022-11-20T09:25:20;3.70;99.90
13416;DHT22;6779;50.150;8.680;2022-11-20T09:27:45;3.80;99.90
13416;DHT22;6779;50.150;8.680;2022-11-20T09:30:13;4.00;99.90
13416;DHT22;6779;50.150;8.680;2022-11-20T09:32:39;4.00;99.90
13416;DHT22;6779;50.150;8.680;2022-11-20T09:35:05;3.90;99.90
13416;DHT22;6779;50.150;8.680;2022-11-20T09:37:30;3.90;99.90
13416;DHT22;6779;50.150;8.680;2022-11-20T09:39:56;4.10;99.90
13416;DHT22;6779;50.150;8.680;2022-11-20T09:42:37;4.10;99.90
13416;DHT22;6779;50.150;8.680;2022-11-20T09:45:30;4.20;99.90
13416;DHT22;6779;50.150;8.680;2022-11-20T09:51:13;4.20;99.90
13416;DHT22;6779;50.150;8.680;2022-11-20T09:56:42;4.60;99.90
13416;DHT22;6779;50.150;8.680;2022-11-20T10:02:01;5.30;99.90
13416;DHT22;6779;50.150;8.680;2022-11-20T10:04:30;5.30;99.90
13416;DHT22;6779;50.150;8.680;2022-11-20T10:07:04;5.40;99.90
13416;DHT22;6779;50.150;8.680;2022-11-20T10:09:34;5.40;99.90
13416;DHT22;6779;50.150;8.680;2022-11-20T10:12:12;5.40;99.90
13416;DHT22;6779;50.150;8.680;2022-11-20T10:14:56;5.40;99.90
13416;DHT22;6779;50.150;8.680;2022-11-20T10:20:14;5.20;99.90
13416;DHT22;6779;50.150;8.680;2022-11-20T10:22:50;5.10;99.90
13416;DHT22;6779;50.150;8.680;2022-11-20T10:25:24;5.00;99.90
13416;DHT22;6779;50.150;8.680;2022-11-20T10:30:51;5.00;99.90
13416;DHT22;6779;50.150;8.680;2022-11-20T10:33:22;5.00;99.90
13416;DHT22;6779;50.150;8.680;2022-11-20T10:35:50;5.00;99.90
13416;DHT22;6779;50.150;8.680;2022-11-20T10:41:27;5.00;99.90
13416;DHT22;6779;50.150;8.680;2022-11-20T10:44:14;4.90;99.90
13416;DHT22;6779;50.150;8.680;2022-11-20T10:47:00;5.00;99.90
13416;DHT22;6779;50.150;8.680;2022-11-20T10:49:26;5.00;99.90
13416;DHT22;6779;50.150;8.680;2022-11-20T11:00:13;4.80;99.90
13416;DHT22;6779;50.150;8.680;2022-11-20T11:02:43;4.90;99.90
13416;DHT22;6779;50.150;8.680;2022-11-20T11:05:30;5.00;99.90
13416;DHT22;6779;50.150;8.680;2022-11-20T11:07:58;4.90;99.90
13416;DHT22;6779;50.150;8.680;2022-11-20T11:13:01;5.00;99.90
13416;DHT22;6779;50.150;8.680;2022-11-20T11:15:38;5.00;99.90
13416;DHT22;6779;50.150;8.680;2022-11-20T11:18:04;5.00;99.90
13416;DHT22;6779;50.150;8.680;2022-11-20T11:20:30;5.00;99.90
13416;DHT22;6779;50.150;8.680;2022-11-20T11:22:58;5.00;99.90
13416;DHT22;6779;50.150;8.680;2022-11-20T11:25:32;5.00;99.90
13416;DHT22;6779;50.150;8.680;2022-11-20T11:28:21;5.00;99.90
13416;DHT22;6779;50.150;8.680;2022-11-20T11:30:47;5.10;99.90
13416;DHT22;6779;50.150;8.680;2022-11-20T11:33:26;5.10;99.90
13416;DHT22;6779;50.150;8.680;2022-11-20T11:35:57;5.10;99.90
13416;DHT22;6779;50.150;8.680;2022-11-20T11:41:00;5.10;99.90
13416;DHT22;6779;50.150;8.680;2022-11-20T11:43:29;5.10;99.90
13416;DHT22;6779;50.150;8.680;2022-11-20T11:49:00;5.10;99.90
13416;DHT22;6779;50.150;8.680;2022-11-20T11:51:31;5.20;99.90
13416;DHT22;6779;50.150;8.680;2022-11-20T11:53:58;5.40;99.90
13416;DHT22;6779;50.150;8.680;2022-11-20T11:56:26;5.40;99.90
13416;DHT22;6779;50.150;8.680;2022-11-20T11:58:57;5.50;99.90
13416;DHT22;6779;50.150;8.680;2022-11-20T12:04:36;5.40;99.90
13416;DHT22;6779;50.150;8.680;2022-11-20T12:07:03;5.50;99.90
13416;DHT22;6779;50.150;8.680;2022-11-20T12:09:37;5.60;99.90
13416;DHT22;6779;50.150;8.680;2022-11-20T12:12:18;5.50;99.90
13416;DHT22;6779;50.150;8.680;2022-11-20T12:14:47;5.60;99.90
13416;DHT22;6779;50.150;8.680;2022-11-20T12:17:14;5.80;99.90
13416;DHT22;6779;50.150;8.680;2022-11-20T12:19:40;5.90;99.90
13416;DHT22;6779;50.150;8.680;2022-11-20T12:25:17;6.20;99.90
13416;DHT22;6779;50.150;8.680;2022-11-20T12:30:25;6.20;99.90
13416;DHT22;6779;50.150;8.680;2022-11-20T12:33:18;6.00;99.90
13416;DHT22;6779;50.150;8.680;2022-11-20T12:35:52;6.00;99.90
13416;DHT22;6779;50.150;8.680;2022-11-20T12:41:21;6.00;99.90
13416;DHT22;6779;50.150;8.680;2022-11-20T12:53:40;5.90;99.90
13416;DHT22;6779;50.150;8.680;2022-11-20T12:56:53;5.80;99.90
13416;DHT22;6779;50.150;8.680;2022-11-20T12:59:48;5.90;99.90
13416;DHT22;6779;50.150;8.680;2022-11-20T13:05:11;5.90;99.90
13416;DHT22;6779;50.150;8.680;2022-11-20T13:07:41;5.90;99.90
13416;DHT22;6779;50.150;8.680;2022-11-20T13:13:00;5.70;99.90
13416;DHT22;6779;50.150;8.680;2022-11-20T13:18:14;5.80;99.90
13416;DHT22;6779;50.150;8.680;2022-11-20T13:20:44;5.80;99.90
13416;DHT22;6779;50.150;8.680;2022-11-20T13:23:11;5.80;99.90
13416;DHT22;6779;50.150;8.680;2022-11-20T13:25:40;5.80;99.90
13416;DHT22;6779;50.150;8.680;2022-11-20T13:30:48;5.70;99.90
13416;DHT22;6779;50.150;8.680;2022-11-20T13:33:38;5.80;99.90
13416;DHT22;6779;50.150;8.680;2022-11-20T13:36:07;5.90;99.90
13416;DHT22;6779;50.150;8.680;2022-11-20T13:38:52;6.00;99.90
13416;DHT22;6779;50.150;8.680;2022-11-20T13:41:29;6.00;99.90
13416;DHT22;6779;50.150;8.680;2022-11-20T13:44:09;6.00;99.90
13416;DHT22;6779;50.150;8.680;2022-11-20T13:46:42;6.10;99.90
13416;DHT22;6779;50.150;8.680;2022-11-20T13:49:17;6.00;99.90
13416;DHT22;6779;50.150;8.680;2022-11-20T13:51:48;6.00;99.90
13416;DHT22;6779;50.150;8.680;2022-11-20T14:01:54;5.80;99.90
13416;DHT22;6779;50.150;8.680;2022-11-20T14:04:35;5.80;99.90
13416;DHT22;6779;50.150;8.680;2022-11-20T14:07:01;5.80;99.90
13416;DHT22;6779;50.150;8.680;2022-11-20T14:09:32;5.90;99.90
13416;DHT22;6779;50.150;8.680;2022-11-20T14:11:58;5.90;99.90
13416;DHT22;6779;50.150;8.680;2022-11-20T14:14:27;5.80;99.90
13416;DHT22;6779;50.150;8.680;2022-11-20T14:17:08;5.80;99.90
13416;DHT22;6779;50.150;8.680;2022-11-20T14:19:34;5.80;99.90
13416;DHT22;6779;50.150;8.680;2022-11-20T14:22:17;5.80;99.90
13416;DHT22;6779;50.150;8.680;2022-11-20T14:24:47;5.90;99.90
13416;DHT22;6779;50.150;8.680;2022-11-20T14:27:18;5.90;99.90
13416;DHT22;6779;50.150;8.680;2022-11-20T14:29:46;5.90;99.90
13416;DHT22;6779;50.150;8.680;2022-11-20T14:32:15;5.90;99.90
13416;DHT22;6779;50.150;8.680;2022-11-20T14:34:44;5.80;99.90
13416;DHT22;6779;50.150;8.680;2022-11-20T14:37:12;5.70;99.90
13416;DHT22;6779;50.150;8.680;2022-11-20T14:39:47;5.80;99.90
13416;DHT22;6779;50.150;8.680;2022-11-20T14:42:27;5.80;99.90
13416;DHT22;6779;50.150;8.680;2022-11-20T14:44:56;5.80;99.90
13416;DHT22;6779;50.150;8.680;2022-11-20T14:47:24;5.70;99.90
13416;DHT22;6779;50.150;8.680;2022-11-20T14:49:51;5.70;99.90
13416;DHT22;6779;50.150;8.680;2022-11-20T14:52:23;5.70;99.90
13416;DHT22;6779;50.150;8.680;2022-11-20T14:54:51;5.80;99.90
13416;DHT22;6779;50.150;8.680;2022-11-20T14:57:28;5.80;99.90
13416;DHT22;6779;50.150;8.680;2022-11-20T15:00:27;5.80;99.90
13416;DHT22;6779;50.150;8.680;2022-11-20T15:02:53;5.80;99.90
13416;DHT22;6779;50.150;8.680;2022-11-20T15:05:21;5.70;99.90
13416;DHT22;6779;50.150;8.680;2022-11-20T15:08:04;5.80;99.90
13416;DHT22;6779;50.150;8.680;2022-11-20T15:10:29;5.80;99.90
13416;DHT22;6779;50.150;8.680;2022-11-20T15:12:59;5.70;99.90
13416;DHT22;6779;50.150;8.680;2022-11-20T15:17:52;5.80;99.90
13416;DHT22;6779;50.150;8.680;2022-11-20T15:20:18;5.70;99.90
13416;DHT22;6779;50.150;8.680;2022-11-20T15:22:43;5.70;99.90
13416;DHT22;6779;50.150;8.680;2022-11-20T15:25:17;5.70;99.90
13416;DHT22;6779;50.150;8.680;2022-11-20T15:27:43;5.80;99.90
13416;DHT22;6779;50.150;8.680;2022-11-20T15:30:20;5.80;99.90
13416;DHT22;6779;50.150;8.680;2022-11-20T15:32:46;5.80;99.90
13416;DHT22;6779;50.150;8.680;2022-11-20T15:35:13;5.80;99.90
13416;DHT22;6779;50.150;8.680;2022-11-20T15:37:39;5.80;99.90
13416;DHT22;6779;50.150;8.680;2022-11-20T15:40:06;5.90;99.90
13416;DHT22;6779;50.150;8.680;2022-11-20T15:42:32;5.80;99.90
13416;DHT22;6779;50.150;8.680;2022-11-20T15:44:58;5.90;99.90
13416;DHT22;6779;50.150;8.680;2022-11-20T15:47:30;5.80;99.90
13416;DHT22;6779;50.150;8.680;2022-11-20T15:49:56;5.80;99.90
13416;DHT22;6779;50.150;8.680;2022-11-20T15:52:21;5.80;99.90
13416;DHT22;6779;50.150;8.680;2022-11-20T15:54:47;5.80;99.90
13416;DHT22;6779;50.150;8.680;2022-11-20T15:57:13;5.90;99.90
13416;DHT22;6779;50.150;8.680;2022-11-20T15:59:39;5.80;99.90
13416;DHT22;6779;50.150;8.680;2022-11-20T16:02:14;5.90;99.90
13416;DHT22;6779;50.150;8.680;2022-11-20T16:04:40;5.90;99.90
13416;DHT22;6779;50.150;8.680;2022-11-20T16:07:06;5.90;99.90
13416;DHT22;6779;50.150;8.680;2022-11-20T16:09:32;5.90;99.90
13416;DHT22;6779;50.150;8.680;2022-11-20T16:11:58;5.90;99.90
13416;DHT22;6779;50.150;8.680;2022-11-20T16:14:27;6.00;99.90
13416;DHT22;6779;50.150;8.680;2022-11-20T16:17:11;6.00;99.90
13416;DHT22;6779;50.150;8.680;2022-11-20T16:19:37;6.00;99.90
13416;DHT22;6779;50.150;8.680;2022-11-20T16:22:02;6.00;99.90
13416;DHT22;6779;50.150;8.680;2022-11-20T16:24:28;6.00;99.90
13416;DHT22;6779;50.150;8.680;2022-11-20T16:26:55;5.90;99.90
13416;DHT22;6779;50.150;8.680;2022-11-20T16:29:21;6.00;99.90
13416;DHT22;6779;50.150;8.680;2022-11-20T16:31:46;6.00;99.90
13416;DHT22;6779;50.150;8.680;2022-11-20T16:34:14;6.00;99.90
13416;DHT22;6779;50.150;8.680;2022-11-20T16:36:41;6.00;99.90
13416;DHT22;6779;50.150;8.680;2022-11-20T16:39:07;5.90;99.90
13416;DHT22;6779;50.150;8.680;2022-11-20T16:41:33;5.90;99.90
13416;DHT22;6779;50.150;8.680;2022-11-20T16:44:01;6.00;99.90
13416;DHT22;6779;50.150;8.680;2022-11-20T16:46:29;6.00;99.90
13416;DHT22;6779;50.150;8.680;2022-11-20T16:48:59;6.00;99.90
13416;DHT22;6779;50.150;8.680;2022-11-20T16:51:27;5.90;99.90
13416;DHT22;6779;50.150;8.680;2022-11-20T16:53:53;5.90;99.90
13416;DHT22;6779;50.150;8.680;2022-11-20T16:56:24;6.00;99.90
13416;DHT22;6779;50.150;8.680;2022-11-20T16:58:50;6.00;99.90
13416;DHT22;6779;50.150;8.680;2022-11-20T17:01:19;5.90;99.90
13416;DHT22;6779;50.150;8.680;2022-11-20T17:03:46;5.90;99.90
13416;DHT22;6779;50.150;8.680;2022-11-20T17:06:17;6.00;99.90
13416;DHT22;6779;50.150;8.680;2022-11-20T17:08:44;5.90;99.90
13416;DHT22;6779;50.150;8.680;2022-11-20T17:11:15;5.90;99.90
13416;DHT22;6779;50.150;8.680;2022-11-20T17:13:42;5.90;99.90
13416;DHT22;6779;50.150;8.680;2022-11-20T17:16:10;5.80;99.90
13416;DHT22;6779;50.150;8.680;2022-11-20T17:18:36;5.80;99.90
13416;DHT22;6779;50.150;8.680;2022-11-20T17:21:02;5.80;99.90
13416;DHT22;6779;50.150;8.680;2022-11-20T17:23:32;5.80;99.90
13416;DHT22;6779;50.150;8.680;2022-11-20T17:26:16;5.80;99.90
13416;DHT22;6779;50.150;8.680;2022-11-20T17:28:54;5.80;99.90
13416;DHT22;6779;50.150;8.680;2022-11-20T17:31:19;5.80;99.90
13416;DHT22;6779;50.150;8.680;2022-11-20T17:33:45;5.90;99.90
13416;DHT22;6779;50.150;8.680;2022-11-20T17:36:13;5.90;99.90